sensor_id;sensor_type;location;lat;lon;timestamp;P1;durP1;ratioP1;P2;durP2;ratioP2
8333;SDS011;4204;43.004;23.052;2023-07-20T00:01:07;6.77;;;2.40;;
8333;SDS011;4204;43.004;23.052;2023-07-20T00:03:35;5.57;;;2.30;;
8333;SDS011;4204;43.004;23.052;2023-07-20T00:06:03;4.60;;;2.37;;
8333;SDS011;4204;43.004;23.052;2023-07-20T00:08:32;6.10;;;2.70;;
8333;SDS011;4204;43.004;23.052;2023-07-20T00:11:00;5.50;;;2.40;;
8333;SDS011;4204;43.004;23.052;2023-07-20T00:13:28;9.03;;;3.20;;
8333;SDS011;4204;43.004;23.052;2023-07-20T00:15:55;4.00;;;2.80;;
8333;SDS011;4204;43.004;23.052;2023-07-20T00:18:23;9.37;;;3.10;;
8333;SDS011;4204;43.004;23.052;2023-07-20T00:20:51;4.80;;;2.97;;
8333;SDS011;4204;43.004;23.052;2023-07-20T00:23:18;9.17;;;2.60;;
8333;SDS011;4204;43.004;23.052;2023-07-20T00:25:50;4.40;;;2.80;;
8333;SDS011;4204;43.004;23.052;2023-07-20T00:28:17;5.77;;;2.90;;
8333;SDS011;4204;43.004;23.052;2023-07-20T00:30:45;4.93;;;2.50;;
8333;SDS011;4204;43.004;23.052;2023-07-20T00:33:16;5.10;;;3.07;;
8333;SDS011;4204;43.004;23.052;2023-07-20T00:35:44;6.80;;;2.97;;
8333;SDS011;4204;43.004;23.052;2023-07-20T00:38:12;5.33;;;2.70;;
8333;SDS011;4204;43.004;23.052;2023-07-20T00:40:41;5.83;;;2.67;;
8333;SDS011;4204;43.004;23.052;2023-07-20T00:43:10;4.53;;;2.40;;
8333;SDS011;4204;43.004;23.052;2023-07-20T00:45:38;5.33;;;2.50;;
8333;SDS011;4204;43.004;23.052;2023-07-20T00:48:08;5.97;;;2.90;;
8333;SDS011;4204;43.004;23.052;2023-07-20T00:50:37;5.60;;;2.77;;
8333;SDS011;4204;43.004;23.052;2023-07-20T00:53:08;7.33;;;2.70;;
8333;SDS011;4204;43.004;23.052;2023-07-20T00:55:36;5.50;;;2.90;;
8333;SDS011;4204;43.004;23.052;2023-07-20T00:58:04;6.60;;;2.90;;
8333;SDS011;4204;43.004;23.052;2023-07-20T01:00:36;5.83;;;2.87;;
8333;SDS011;4204;43.004;23.052;2023-07-20T01:03:03;7.77;;;2.77;;
8333;SDS011;4204;43.004;23.052;2023-07-20T01:05:33;4.07;;;2.97;;
8333;SDS011;4204;43.004;23.052;2023-07-20T01:08:09;6.13;;;2.80;;
8333;SDS011;4204;43.004;23.052;2023-07-20T01:10:43;3.40;;;2.80;;
8333;SDS011;4204;43.004;23.052;2023-07-20T01:13:16;5.60;;;2.30;;
8333;SDS011;4204;43.004;23.052;2023-07-20T01:15:50;2.80;;;2.50;;
8333;SDS011;4204;43.004;23.052;2023-07-20T01:18:20;5.43;;;3.00;;
8333;SDS011;4204;43.004;23.052;2023-07-20T01:20:48;7.73;;;2.90;;
8333;SDS011;4204;43.004;23.052;2023-07-20T01:23:22;8.20;;;3.10;;
8333;SDS011;4204;43.004;23.052;2023-07-20T01:26:11;3.40;;;2.83;;
8333;SDS011;4204;43.004;23.052;2023-07-20T01:29:05;6.13;;;2.93;;
8333;SDS011;4204;43.004;23.052;2023-07-20T01:31:50;4.17;;;2.90;;
8333;SDS011;4204;43.004;23.052;2023-07-20T01:34:20;6.37;;;2.43;;
8333;SDS011;4204;43.004;23.052;2023-07-20T01:36:50;7.50;;;2.73;;
8333;SDS011;4204;43.004;23.052;2023-07-20T01:39:21;8.13;;;2.93;;
8333;SDS011;4204;43.004;23.052;2023-07-20T01:41:49;7.03;;;2.80;;
8333;SDS011;4204;43.004;23.052;2023-07-20T01:44:16;6.53;;;2.70;;
8333;SDS011;4204;43.004;23.052;2023-07-20T01:46:44;4.00;;;2.73;;
8333;SDS011;4204;43.004;23.052;2023-07-20T01:49:13;4.87;;;2.70;;
8333;SDS011;4204;43.004;23.052;2023-07-20T01:51:41;5.00;;;2.50;;
8333;SDS011;4204;43.004;23.052;2023-07-20T01:54:09;4.87;;;2.73;;
8333;SDS011;4204;43.004;23.052;2023-07-20T01:56:37;5.73;;;2.70;;
8333;SDS011;4204;43.004;23.052;2023-07-20T01:59:05;4.90;;;2.80;;
8333;SDS011;4204;43.004;23.052;2023-07-20T02:01:33;5.67;;;2.83;;
8333;SDS011;4204;43.004;23.052;2023-07-20T02:04:01;4.20;;;2.67;;
8333;SDS011;4204;43.004;23.052;2023-07-20T02:06:30;7.10;;;2.73;;
8333;SDS011;4204;43.004;23.052;2023-07-20T02:08:57;5.13;;;2.90;;
8333;SDS011;4204;43.004;23.052;2023-07-20T02:11:25;4.37;;;2.87;;
8333;SDS011;4204;43.004;23.052;2023-07-20T02:13:53;7.43;;;2.80;;
8333;SDS011;4204;43.004;23.052;2023-07-20T02:16:20;5.33;;;2.80;;
8333;SDS011;4204;43.004;23.052;2023-07-20T02:18:48;7.47;;;2.67;;
8333;SDS011;4204;43.004;23.052;2023-07-20T02:21:16;7.03;;;3.00;;
8333;SDS011;4204;43.004;23.052;2023-07-20T02:23:45;7.80;;;3.10;;
8333;SDS011;4204;43.004;23.052;2023-07-20T02:26:13;6.60;;;2.93;;
8333;SDS011;4204;43.004;23.052;2023-07-20T02:28:40;7.57;;;3.20;;
8333;SDS011;4204;43.004;23.052;2023-07-20T02:31:08;3.53;;;2.90;;
8333;SDS011;4204;43.004;23.052;2023-07-20T02:33:36;9.43;;;3.33;;
8333;SDS011;4204;43.004;23.052;2023-07-20T02:36:04;4.90;;;3.30;;
8333;SDS011;4204;43.004;23.052;2023-07-20T02:38:31;4.20;;;3.17;;
8333;SDS011;4204;43.004;23.052;2023-07-20T02:41:00;5.83;;;3.13;;
8333;SDS011;4204;43.004;23.052;2023-07-20T02:43:28;6.37;;;2.97;;
8333;SDS011;4204;43.004;23.052;2023-07-20T02:45:56;8.60;;;4.10;;
8333;SDS011;4204;43.004;23.052;2023-07-20T02:48:24;8.60;;;3.13;;
8333;SDS011;4204;43.004;23.052;2023-07-20T02:50:51;4.17;;;2.83;;
8333;SDS011;4204;43.004;23.052;2023-07-20T02:53:19;5.37;;;2.83;;
8333;SDS011;4204;43.004;23.052;2023-07-20T02:55:47;7.17;;;3.20;;
8333;SDS011;4204;43.004;23.052;2023-07-20T02:58:16;6.30;;;3.00;;
8333;SDS011;4204;43.004;23.052;2023-07-20T03:00:43;7.70;;;2.90;;
8333;SDS011;4204;43.004;23.052;2023-07-20T03:03:11;3.83;;;2.53;;
8333;SDS011;4204;43.004;23.052;2023-07-20T03:05:40;6.47;;;3.17;;
8333;SDS011;4204;43.004;23.052;2023-07-20T03:08:08;5.00;;;2.93;;
8333;SDS011;4204;43.004;23.052;2023-07-20T03:10:38;7.40;;;3.00;;
8333;SDS011;4204;43.004;23.052;2023-07-20T03:13:06;9.67;;;3.20;;
8333;SDS011;4204;43.004;23.052;2023-07-20T03:15:35;4.90;;;2.77;;
8333;SDS011;4204;43.004;23.052;2023-07-20T03:18:03;6.90;;;3.50;;
8333;SDS011;4204;43.004;23.052;2023-07-20T03:20:31;6.10;;;3.33;;
8333;SDS011;4204;43.004;23.052;2023-07-20T03:22:59;6.87;;;3.00;;
8333;SDS011;4204;43.004;23.052;2023-07-20T03:25:26;9.23;;;3.13;;
8333;SDS011;4204;43.004;23.052;2023-07-20T03:27:54;5.57;;;3.00;;
8333;SDS011;4204;43.004;23.052;2023-07-20T03:30:21;4.33;;;2.77;;
8333;SDS011;4204;43.004;23.052;2023-07-20T03:32:50;6.30;;;3.00;;
8333;SDS011;4204;43.004;23.052;2023-07-20T03:35:18;4.63;;;2.90;;
8333;SDS011;4204;43.004;23.052;2023-07-20T03:37:46;7.27;;;3.43;;
8333;SDS011;4204;43.004;23.052;2023-07-20T03:40:14;5.77;;;3.07;;
8333;SDS011;4204;43.004;23.052;2023-07-20T03:42:41;8.57;;;3.27;;
8333;SDS011;4204;43.004;23.052;2023-07-20T03:45:09;7.57;;;3.20;;
8333;SDS011;4204;43.004;23.052;2023-07-20T03:47:37;4.60;;;3.13;;
8333;SDS011;4204;43.004;23.052;2023-07-20T03:50:07;4.60;;;3.33;;
8333;SDS011;4204;43.004;23.052;2023-07-20T03:52:36;4.97;;;3.10;;
8333;SDS011;4204;43.004;23.052;2023-07-20T03:55:04;6.70;;;3.77;;
8333;SDS011;4204;43.004;23.052;2023-07-20T03:57:32;6.53;;;3.30;;
8333;SDS011;4204;43.004;23.052;2023-07-20T04:00:00;5.37;;;3.00;;
8333;SDS011;4204;43.004;23.052;2023-07-20T04:02:28;5.03;;;3.10;;
8333;SDS011;4204;43.004;23.052;2023-07-20T04:04:55;7.13;;;3.43;;
8333;SDS011;4204;43.004;23.052;2023-07-20T04:07:24;6.03;;;3.40;;
8333;SDS011;4204;43.004;23.052;2023-07-20T04:09:52;8.80;;;3.80;;
8333;SDS011;4204;43.004;23.052;2023-07-20T04:12:20;4.60;;;3.30;;
8333;SDS011;4204;43.004;23.052;2023-07-20T04:14:47;5.43;;;3.43;;
8333;SDS011;4204;43.004;23.052;2023-07-20T04:17:15;5.33;;;3.20;;
8333;SDS011;4204;43.004;23.052;2023-07-20T04:19:43;5.93;;;3.53;;
8333;SDS011;4204;43.004;23.052;2023-07-20T04:22:11;7.27;;;3.53;;
8333;SDS011;4204;43.004;23.052;2023-07-20T04:24:43;7.77;;;3.47;;
8333;SDS011;4204;43.004;23.052;2023-07-20T04:27:10;6.20;;;3.47;;
8333;SDS011;4204;43.004;23.052;2023-07-20T04:29:38;5.57;;;3.23;;
8333;SDS011;4204;43.004;23.052;2023-07-20T04:32:06;6.50;;;3.73;;
8333;SDS011;4204;43.004;23.052;2023-07-20T04:34:36;7.63;;;4.20;;
8333;SDS011;4204;43.004;23.052;2023-07-20T04:37:05;8.50;;;4.17;;
8333;SDS011;4204;43.004;23.052;2023-07-20T04:39:33;6.63;;;4.00;;
8333;SDS011;4204;43.004;23.052;2023-07-20T04:42:07;7.40;;;3.83;;
8333;SDS011;4204;43.004;23.052;2023-07-20T04:44:34;6.13;;;4.07;;
8333;SDS011;4204;43.004;23.052;2023-07-20T04:47:02;6.17;;;3.93;;
8333;SDS011;4204;43.004;23.052;2023-07-20T04:49:35;9.57;;;4.30;;
8333;SDS011;4204;43.004;23.052;2023-07-20T04:52:02;8.03;;;4.20;;
8333;SDS011;4204;43.004;23.052;2023-07-20T04:54:32;7.03;;;4.13;;
8333;SDS011;4204;43.004;23.052;2023-07-20T04:56:59;7.77;;;3.93;;
8333;SDS011;4204;43.004;23.052;2023-07-20T04:59:29;7.50;;;3.60;;
8333;SDS011;4204;43.004;23.052;2023-07-20T05:01:56;8.40;;;3.93;;
8333;SDS011;4204;43.004;23.052;2023-07-20T05:04:24;6.77;;;4.37;;
8333;SDS011;4204;43.004;23.052;2023-07-20T05:06:52;8.30;;;4.20;;
8333;SDS011;4204;43.004;23.052;2023-07-20T05:09:20;7.37;;;5.27;;
8333;SDS011;4204;43.004;23.052;2023-07-20T05:11:48;11.23;;;5.53;;
8333;SDS011;4204;43.004;23.052;2023-07-20T05:14:16;7.73;;;4.57;;
8333;SDS011;4204;43.004;23.052;2023-07-20T05:16:47;7.53;;;4.23;;
8333;SDS011;4204;43.004;23.052;2023-07-20T05:19:15;9.33;;;4.37;;
8333;SDS011;4204;43.004;23.052;2023-07-20T05:21:42;7.57;;;4.77;;
8333;SDS011;4204;43.004;23.052;2023-07-20T05:24:10;5.67;;;3.83;;
8333;SDS011;4204;43.004;23.052;2023-07-20T05:26:38;6.63;;;4.27;;
8333;SDS011;4204;43.004;23.052;2023-07-20T05:29:06;7.47;;;4.60;;
8333;SDS011;4204;43.004;23.052;2023-07-20T05:31:33;9.40;;;5.13;;
8333;SDS011;4204;43.004;23.052;2023-07-20T05:34:02;7.80;;;4.40;;
8333;SDS011;4204;43.004;23.052;2023-07-20T05:36:30;8.57;;;4.53;;
8333;SDS011;4204;43.004;23.052;2023-07-20T05:38:58;8.23;;;4.70;;
8333;SDS011;4204;43.004;23.052;2023-07-20T05:41:25;9.83;;;4.53;;
8333;SDS011;4204;43.004;23.052;2023-07-20T05:43:53;7.87;;;4.70;;
8333;SDS011;4204;43.004;23.052;2023-07-20T05:46:21;7.37;;;4.30;;
8333;SDS011;4204;43.004;23.052;2023-07-20T05:48:50;6.70;;;4.70;;
8333;SDS011;4204;43.004;23.052;2023-07-20T05:51:19;7.37;;;4.40;;
8333;SDS011;4204;43.004;23.052;2023-07-20T05:53:47;10.53;;;4.90;;
8333;SDS011;4204;43.004;23.052;2023-07-20T05:56:14;6.53;;;4.53;;
8333;SDS011;4204;43.004;23.052;2023-07-20T05:58:42;9.27;;;4.53;;
8333;SDS011;4204;43.004;23.052;2023-07-20T06:01:10;10.27;;;5.13;;
8333;SDS011;4204;43.004;23.052;2023-07-20T06:03:38;8.20;;;4.33;;
8333;SDS011;4204;43.004;23.052;2023-07-20T06:06:06;6.47;;;4.13;;
8333;SDS011;4204;43.004;23.052;2023-07-20T06:08:36;12.37;;;5.30;;
8333;SDS011;4204;43.004;23.052;2023-07-20T06:11:04;8.10;;;4.77;;
8333;SDS011;4204;43.004;23.052;2023-07-20T06:13:32;12.00;;;4.93;;
8333;SDS011;4204;43.004;23.052;2023-07-20T06:15:59;12.10;;;4.77;;
8333;SDS011;4204;43.004;23.052;2023-07-20T06:18:27;6.07;;;4.30;;
8333;SDS011;4204;43.004;23.052;2023-07-20T06:20:56;7.17;;;4.40;;
8333;SDS011;4204;43.004;23.052;2023-07-20T06:23:24;8.30;;;4.60;;
8333;SDS011;4204;43.004;23.052;2023-07-20T06:25:53;7.37;;;4.70;;
8333;SDS011;4204;43.004;23.052;2023-07-20T06:28:21;11.30;;;4.70;;
8333;SDS011;4204;43.004;23.052;2023-07-20T06:30:49;8.20;;;4.90;;
8333;SDS011;4204;43.004;23.052;2023-07-20T06:33:17;8.33;;;5.00;;
8333;SDS011;4204;43.004;23.052;2023-07-20T06:35:46;13.63;;;6.37;;
8333;SDS011;4204;43.004;23.052;2023-07-20T06:38:14;7.13;;;4.93;;
8333;SDS011;4204;43.004;23.052;2023-07-20T06:40:41;6.27;;;4.60;;
8333;SDS011;4204;43.004;23.052;2023-07-20T06:43:10;8.40;;;4.50;;
8333;SDS011;4204;43.004;23.052;2023-07-20T06:45:38;9.33;;;4.43;;
8333;SDS011;4204;43.004;23.052;2023-07-20T06:48:06;8.40;;;4.33;;
8333;SDS011;4204;43.004;23.052;2023-07-20T06:50:34;7.80;;;4.63;;
8333;SDS011;4204;43.004;23.052;2023-07-20T06:53:02;9.27;;;4.93;;
8333;SDS011;4204;43.004;23.052;2023-07-20T06:55:30;8.00;;;4.57;;
8333;SDS011;4204;43.004;23.052;2023-07-20T06:57:58;8.73;;;4.63;;
8333;SDS011;4204;43.004;23.052;2023-07-20T07:00:27;11.40;;;4.97;;
8333;SDS011;4204;43.004;23.052;2023-07-20T07:02:55;14.20;;;5.33;;
8333;SDS011;4204;43.004;23.052;2023-07-20T07:05:23;8.57;;;5.20;;
8333;SDS011;4204;43.004;23.052;2023-07-20T07:07:51;9.17;;;4.73;;
8333;SDS011;4204;43.004;23.052;2023-07-20T07:10:18;11.87;;;5.07;;
8333;SDS011;4204;43.004;23.052;2023-07-20T07:12:46;9.70;;;4.97;;
8333;SDS011;4204;43.004;23.052;2023-07-20T07:15:14;7.80;;;4.57;;
8333;SDS011;4204;43.004;23.052;2023-07-20T07:17:43;4.60;;;4.13;;
8333;SDS011;4204;43.004;23.052;2023-07-20T07:20:11;7.13;;;4.73;;
8333;SDS011;4204;43.004;23.052;2023-07-20T07:22:39;8.50;;;5.10;;
8333;SDS011;4204;43.004;23.052;2023-07-20T07:25:09;9.00;;;4.40;;
8333;SDS011;4204;43.004;23.052;2023-07-20T07:27:38;9.77;;;4.40;;
8333;SDS011;4204;43.004;23.052;2023-07-20T07:30:06;7.40;;;3.70;;
8333;SDS011;4204;43.004;23.052;2023-07-20T07:32:37;8.73;;;4.40;;
8333;SDS011;4204;43.004;23.052;2023-07-20T07:35:07;9.53;;;4.13;;
8333;SDS011;4204;43.004;23.052;2023-07-20T07:37:34;9.63;;;4.90;;
8333;SDS011;4204;43.004;23.052;2023-07-20T07:40:03;6.33;;;3.80;;
8333;SDS011;4204;43.004;23.052;2023-07-20T07:42:32;5.57;;;4.27;;
8333;SDS011;4204;43.004;23.052;2023-07-20T07:44:59;6.80;;;4.40;;
8333;SDS011;4204;43.004;23.052;2023-07-20T07:47:28;9.30;;;4.63;;
8333;SDS011;4204;43.004;23.052;2023-07-20T07:49:56;10.20;;;3.97;;
8333;SDS011;4204;43.004;23.052;2023-07-20T07:52:26;5.33;;;3.87;;
8333;SDS011;4204;43.004;23.052;2023-07-20T07:54:53;9.33;;;4.13;;
8333;SDS011;4204;43.004;23.052;2023-07-20T07:57:21;5.73;;;4.23;;
8333;SDS011;4204;43.004;23.052;2023-07-20T07:59:49;8.60;;;4.10;;
8333;SDS011;4204;43.004;23.052;2023-07-20T08:02:17;6.53;;;3.30;;
8333;SDS011;4204;43.004;23.052;2023-07-20T08:04:45;6.13;;;3.50;;
8333;SDS011;4204;43.004;23.052;2023-07-20T08:07:13;9.67;;;3.47;;
8333;SDS011;4204;43.004;23.052;2023-07-20T08:09:42;5.50;;;2.80;;
8333;SDS011;4204;43.004;23.052;2023-07-20T08:12:10;5.33;;;3.00;;
8333;SDS011;4204;43.004;23.052;2023-07-20T08:14:37;6.60;;;2.90;;
8333;SDS011;4204;43.004;23.052;2023-07-20T08:17:05;6.50;;;2.90;;
8333;SDS011;4204;43.004;23.052;2023-07-20T08:19:33;6.47;;;2.60;;
8333;SDS011;4204;43.004;23.052;2023-07-20T08:22:01;4.73;;;2.60;;
8333;SDS011;4204;43.004;23.052;2023-07-20T08:24:29;8.80;;;3.20;;
8333;SDS011;4204;43.004;23.052;2023-07-20T08:26:58;4.33;;;2.60;;
8333;SDS011;4204;43.004;23.052;2023-07-20T08:29:26;5.80;;;2.70;;
8333;SDS011;4204;43.004;23.052;2023-07-20T08:31:53;9.80;;;3.33;;
8333;SDS011;4204;43.004;23.052;2023-07-20T08:34:21;7.17;;;2.63;;
8333;SDS011;4204;43.004;23.052;2023-07-20T08:36:49;4.50;;;2.50;;
8333;SDS011;4204;43.004;23.052;2023-07-20T08:39:17;6.87;;;2.80;;
8333;SDS011;4204;43.004;23.052;2023-07-20T08:41:46;4.47;;;2.70;;
8333;SDS011;4204;43.004;23.052;2023-07-20T08:44:15;5.60;;;2.80;;
8333;SDS011;4204;43.004;23.052;2023-07-20T08:46:43;6.17;;;3.10;;
8333;SDS011;4204;43.004;23.052;2023-07-20T08:49:13;4.90;;;2.23;;
8333;SDS011;4204;43.004;23.052;2023-07-20T08:51:43;4.50;;;2.80;;
8333;SDS011;4204;43.004;23.052;2023-07-20T08:54:13;4.20;;;2.93;;
8333;SDS011;4204;43.004;23.052;2023-07-20T08:56:43;5.63;;;3.20;;
8333;SDS011;4204;43.004;23.052;2023-07-20T08:59:13;4.63;;;2.90;;
8333;SDS011;4204;43.004;23.052;2023-07-20T09:01:44;5.80;;;3.20;;
8333;SDS011;4204;43.004;23.052;2023-07-20T09:04:14;7.83;;;3.33;;
8333;SDS011;4204;43.004;23.052;2023-07-20T09:06:42;7.10;;;3.37;;
8333;SDS011;4204;43.004;23.052;2023-07-20T09:09:10;4.60;;;3.47;;
8333;SDS011;4204;43.004;23.052;2023-07-20T09:11:38;5.83;;;3.57;;
8333;SDS011;4204;43.004;23.052;2023-07-20T09:14:07;7.77;;;3.77;;
8333;SDS011;4204;43.004;23.052;2023-07-20T09:16:47;5.60;;;3.33;;
8333;SDS011;4204;43.004;23.052;2023-07-20T09:19:16;4.33;;;3.27;;
8333;SDS011;4204;43.004;23.052;2023-07-20T09:21:44;7.73;;;3.23;;
8333;SDS011;4204;43.004;23.052;2023-07-20T09:24:13;4.97;;;3.23;;
8333;SDS011;4204;43.004;23.052;2023-07-20T09:26:42;6.27;;;3.53;;
8333;SDS011;4204;43.004;23.052;2023-07-20T09:29:11;4.97;;;3.47;;
8333;SDS011;4204;43.004;23.052;2023-07-20T09:31:39;7.27;;;3.27;;
8333;SDS011;4204;43.004;23.052;2023-07-20T09:34:13;5.13;;;3.17;;
8333;SDS011;4204;43.004;23.052;2023-07-20T09:36:41;6.27;;;3.37;;
8333;SDS011;4204;43.004;23.052;2023-07-20T09:39:09;5.43;;;3.40;;
8333;SDS011;4204;43.004;23.052;2023-07-20T09:41:42;7.87;;;3.97;;
8333;SDS011;4204;43.004;23.052;2023-07-20T09:44:10;6.43;;;3.60;;
8333;SDS011;4204;43.004;23.052;2023-07-20T09:46:43;6.83;;;3.30;;
8333;SDS011;4204;43.004;23.052;2023-07-20T09:49:13;7.10;;;3.67;;
8333;SDS011;4204;43.004;23.052;2023-07-20T09:51:44;4.60;;;3.10;;
8333;SDS011;4204;43.004;23.052;2023-07-20T09:54:13;10.33;;;3.97;;
8333;SDS011;4204;43.004;23.052;2023-07-20T09:56:41;4.73;;;3.47;;
8333;SDS011;4204;43.004;23.052;2023-07-20T09:59:10;5.17;;;3.20;;
8333;SDS011;4204;43.004;23.052;2023-07-20T10:01:38;5.90;;;3.57;;
8333;SDS011;4204;43.004;23.052;2023-07-20T10:04:10;6.23;;;3.30;;
8333;SDS011;4204;43.004;23.052;2023-07-20T10:06:41;8.13;;;3.60;;
8333;SDS011;4204;43.004;23.052;2023-07-20T10:09:10;8.67;;;3.60;;
8333;SDS011;4204;43.004;23.052;2023-07-20T10:11:46;5.83;;;3.10;;
8333;SDS011;4204;43.004;23.052;2023-07-20T10:14:19;5.53;;;3.10;;
8333;SDS011;4204;43.004;23.052;2023-07-20T10:16:50;5.13;;;3.27;;
8333;SDS011;4204;43.004;23.052;2023-07-20T10:19:21;5.87;;;3.50;;
8333;SDS011;4204;43.004;23.052;2023-07-20T10:21:54;8.90;;;3.63;;
8333;SDS011;4204;43.004;23.052;2023-07-20T10:24:27;6.60;;;3.53;;
8333;SDS011;4204;43.004;23.052;2023-07-20T10:26:55;6.33;;;3.43;;
8333;SDS011;4204;43.004;23.052;2023-07-20T10:29:23;6.77;;;3.40;;
8333;SDS011;4204;43.004;23.052;2023-07-20T10:31:53;8.03;;;3.57;;
8333;SDS011;4204;43.004;23.052;2023-07-20T10:34:22;6.03;;;3.43;;
8333;SDS011;4204;43.004;23.052;2023-07-20T10:36:50;6.07;;;3.47;;
8333;SDS011;4204;43.004;23.052;2023-07-20T10:39:23;7.10;;;3.40;;
8333;SDS011;4204;43.004;23.052;2023-07-20T10:42:00;9.53;;;3.40;;
8333;SDS011;4204;43.004;23.052;2023-07-20T10:44:29;9.40;;;3.30;;
8333;SDS011;4204;43.004;23.052;2023-07-20T10:47:01;5.73;;;3.40;;
8333;SDS011;4204;43.004;23.052;2023-07-20T10:49:35;5.43;;;3.30;;
8333;SDS011;4204;43.004;23.052;2023-07-20T10:52:25;6.57;;;3.20;;
8333;SDS011;4204;43.004;23.052;2023-07-20T10:54:54;4.87;;;3.53;;
8333;SDS011;4204;43.004;23.052;2023-07-20T10:57:29;6.03;;;3.30;;
8333;SDS011;4204;43.004;23.052;2023-07-20T11:00:11;6.27;;;3.20;;
8333;SDS011;4204;43.004;23.052;2023-07-20T11:02:42;7.17;;;3.27;;
8333;SDS011;4204;43.004;23.052;2023-07-20T11:05:32;8.07;;;3.43;;
8333;SDS011;4204;43.004;23.052;2023-07-20T11:08:05;4.77;;;3.07;;
8333;SDS011;4204;43.004;23.052;2023-07-20T11:10:37;3.70;;;3.03;;
8333;SDS011;4204;43.004;23.052;2023-07-20T11:13:18;6.80;;;3.60;;
8333;SDS011;4204;43.004;23.052;2023-07-20T11:16:01;6.63;;;3.27;;
8333;SDS011;4204;43.004;23.052;2023-07-20T11:18:35;5.07;;;2.90;;
8333;SDS011;4204;43.004;23.052;2023-07-20T11:21:08;7.90;;;3.40;;
8333;SDS011;4204;43.004;23.052;2023-07-20T11:23:41;3.77;;;2.60;;
8333;SDS011;4204;43.004;23.052;2023-07-20T11:26:13;7.43;;;3.00;;
8333;SDS011;4204;43.004;23.052;2023-07-20T11:28:42;6.10;;;2.97;;
8333;SDS011;4204;43.004;23.052;2023-07-20T11:31:10;4.63;;;2.77;;
8333;SDS011;4204;43.004;23.052;2023-07-20T11:33:42;5.60;;;2.90;;
8333;SDS011;4204;43.004;23.052;2023-07-20T11:36:10;6.80;;;3.07;;
8333;SDS011;4204;43.004;23.052;2023-07-20T11:38:38;6.90;;;3.00;;
8333;SDS011;4204;43.004;23.052;2023-07-20T11:41:10;5.57;;;2.80;;
8333;SDS011;4204;43.004;23.052;2023-07-20T11:43:38;5.70;;;3.07;;
8333;SDS011;4204;43.004;23.052;2023-07-20T11:46:08;8.53;;;3.47;;
8333;SDS011;4204;43.004;23.052;2023-07-20T11:48:36;7.47;;;3.20;;
8333;SDS011;4204;43.004;23.052;2023-07-20T11:51:05;8.00;;;3.43;;
8333;SDS011;4204;43.004;23.052;2023-07-20T11:53:41;5.30;;;3.30;;
8333;SDS011;4204;43.004;23.052;2023-07-20T11:56:12;8.90;;;3.20;;
8333;SDS011;4204;43.004;23.052;2023-07-20T11:58:43;4.33;;;3.03;;
8333;SDS011;4204;43.004;23.052;2023-07-20T12:01:11;7.13;;;2.87;;
8333;SDS011;4204;43.004;23.052;2023-07-20T12:03:41;9.63;;;3.37;;
8333;SDS011;4204;43.004;23.052;2023-07-20T12:06:09;5.90;;;2.90;;
8333;SDS011;4204;43.004;23.052;2023-07-20T12:08:39;6.67;;;3.10;;
8333;SDS011;4204;43.004;23.052;2023-07-20T12:11:09;6.73;;;3.17;;
8333;SDS011;4204;43.004;23.052;2023-07-20T12:13:38;7.23;;;3.00;;
8333;SDS011;4204;43.004;23.052;2023-07-20T12:16:10;5.93;;;3.13;;
8333;SDS011;4204;43.004;23.052;2023-07-20T12:18:40;6.47;;;3.07;;
8333;SDS011;4204;43.004;23.052;2023-07-20T12:21:08;5.70;;;2.90;;
8333;SDS011;4204;43.004;23.052;2023-07-20T12:23:37;8.00;;;2.97;;
8333;SDS011;4204;43.004;23.052;2023-07-20T12:26:06;8.03;;;2.77;;
8333;SDS011;4204;43.004;23.052;2023-07-20T12:28:39;6.80;;;3.20;;
8333;SDS011;4204;43.004;23.052;2023-07-20T12:31:08;11.03;;;3.00;;
8333;SDS011;4204;43.004;23.052;2023-07-20T12:33:36;10.33;;;3.07;;
8333;SDS011;4204;43.004;23.052;2023-07-20T12:36:05;9.33;;;2.90;;
8333;SDS011;4204;43.004;23.052;2023-07-20T12:38:33;5.37;;;2.73;;
8333;SDS011;4204;43.004;23.052;2023-07-20T12:41:01;4.23;;;2.63;;
8333;SDS011;4204;43.004;23.052;2023-07-20T12:43:30;6.80;;;2.90;;
8333;SDS011;4204;43.004;23.052;2023-07-20T12:45:58;6.10;;;2.60;;
8333;SDS011;4204;43.004;23.052;2023-07-20T12:48:27;4.20;;;2.50;;
8333;SDS011;4204;43.004;23.052;2023-07-20T12:50:55;4.30;;;2.50;;
8333;SDS011;4204;43.004;23.052;2023-07-20T12:53:23;5.03;;;2.67;;
8333;SDS011;4204;43.004;23.052;2023-07-20T12:55:50;5.63;;;2.73;;
8333;SDS011;4204;43.004;23.052;2023-07-20T12:58:18;4.37;;;2.70;;
8333;SDS011;4204;43.004;23.052;2023-07-20T13:00:47;6.47;;;2.60;;
8333;SDS011;4204;43.004;23.052;2023-07-20T13:03:16;4.93;;;2.80;;
8333;SDS011;4204;43.004;23.052;2023-07-20T13:05:45;4.23;;;2.67;;
8333;SDS011;4204;43.004;23.052;2023-07-20T13:08:13;5.10;;;2.60;;
8333;SDS011;4204;43.004;23.052;2023-07-20T13:10:41;4.47;;;3.10;;
8333;SDS011;4204;43.004;23.052;2023-07-20T13:13:09;4.93;;;2.70;;
8333;SDS011;4204;43.004;23.052;2023-07-20T13:15:41;4.27;;;2.33;;
8333;SDS011;4204;43.004;23.052;2023-07-20T13:18:11;5.97;;;2.87;;
8333;SDS011;4204;43.004;23.052;2023-07-20T13:20:39;5.03;;;3.10;;
8333;SDS011;4204;43.004;23.052;2023-07-20T13:23:07;8.60;;;3.20;;
8333;SDS011;4204;43.004;23.052;2023-07-20T13:25:35;4.87;;;3.00;;
8333;SDS011;4204;43.004;23.052;2023-07-20T13:28:04;4.77;;;2.73;;
8333;SDS011;4204;43.004;23.052;2023-07-20T13:30:32;9.00;;;2.70;;
8333;SDS011;4204;43.004;23.052;2023-07-20T13:32:59;6.93;;;2.80;;
8333;SDS011;4204;43.004;23.052;2023-07-20T13:35:29;10.80;;;3.27;;
8333;SDS011;4204;43.004;23.052;2023-07-20T13:37:56;5.13;;;3.00;;
8333;SDS011;4204;43.004;23.052;2023-07-20T13:40:24;5.80;;;3.07;;
8333;SDS011;4204;43.004;23.052;2023-07-20T13:42:52;5.17;;;3.03;;
8333;SDS011;4204;43.004;23.052;2023-07-20T13:45:20;6.33;;;3.00;;
8333;SDS011;4204;43.004;23.052;2023-07-20T13:47:48;7.17;;;2.57;;
8333;SDS011;4204;43.004;23.052;2023-07-20T13:50:16;6.20;;;2.70;;
8333;SDS011;4204;43.004;23.052;2023-07-20T13:52:45;7.37;;;2.80;;
8333;SDS011;4204;43.004;23.052;2023-07-20T13:55:13;6.83;;;2.73;;
8333;SDS011;4204;43.004;23.052;2023-07-20T13:57:41;5.70;;;2.87;;
8333;SDS011;4204;43.004;23.052;2023-07-20T14:00:09;6.13;;;2.57;;
8333;SDS011;4204;43.004;23.052;2023-07-20T14:02:41;3.23;;;2.63;;
8333;SDS011;4204;43.004;23.052;2023-07-20T14:05:09;6.23;;;2.93;;
8333;SDS011;4204;43.004;23.052;2023-07-20T14:07:37;6.63;;;3.13;;
8333;SDS011;4204;43.004;23.052;2023-07-20T14:10:07;6.80;;;2.47;;
8333;SDS011;4204;43.004;23.052;2023-07-20T14:12:36;3.73;;;2.50;;
8333;SDS011;4204;43.004;23.052;2023-07-20T14:15:05;3.20;;;2.27;;
8333;SDS011;4204;43.004;23.052;2023-07-20T14:17:33;3.83;;;2.30;;
8333;SDS011;4204;43.004;23.052;2023-07-20T14:20:03;2.87;;;2.30;;
8333;SDS011;4204;43.004;23.052;2023-07-20T14:22:32;4.77;;;2.70;;
8333;SDS011;4204;43.004;23.052;2023-07-20T14:25:00;6.40;;;2.47;;
8333;SDS011;4204;43.004;23.052;2023-07-20T14:27:29;3.10;;;2.20;;
8333;SDS011;4204;43.004;23.052;2023-07-20T14:29:59;11.57;;;2.43;;
8333;SDS011;4204;43.004;23.052;2023-07-20T14:32:28;6.67;;;2.70;;
8333;SDS011;4204;43.004;23.052;2023-07-20T14:34:56;4.30;;;2.20;;
8333;SDS011;4204;43.004;23.052;2023-07-20T14:37:25;4.07;;;2.60;;
8333;SDS011;4204;43.004;23.052;2023-07-20T14:39:53;5.80;;;2.13;;
8333;SDS011;4204;43.004;23.052;2023-07-20T14:42:21;3.97;;;2.23;;
8333;SDS011;4204;43.004;23.052;2023-07-20T14:44:51;5.70;;;2.47;;
8333;SDS011;4204;43.004;23.052;2023-07-20T14:47:19;5.63;;;2.37;;
8333;SDS011;4204;43.004;23.052;2023-07-20T14:49:47;4.23;;;2.10;;
8333;SDS011;4204;43.004;23.052;2023-07-20T14:52:15;6.13;;;2.50;;
8333;SDS011;4204;43.004;23.052;2023-07-20T14:54:43;3.63;;;2.40;;
8333;SDS011;4204;43.004;23.052;2023-07-20T14:57:12;6.47;;;2.60;;
8333;SDS011;4204;43.004;23.052;2023-07-20T14:59:42;2.40;;;1.70;;
8333;SDS011;4204;43.004;23.052;2023-07-20T15:02:12;5.00;;;2.47;;
8333;SDS011;4204;43.004;23.052;2023-07-20T15:04:45;3.67;;;2.30;;
8333;SDS011;4204;43.004;23.052;2023-07-20T15:07:13;5.87;;;2.43;;
8333;SDS011;4204;43.004;23.052;2023-07-20T15:09:41;3.67;;;2.10;;
8333;SDS011;4204;43.004;23.052;2023-07-20T15:12:09;4.53;;;2.70;;